sensor_id;sensor_type;location;lat;lon;timestamp;temperature;humidity
21602;DHT22;10963;50.934;4.668;2022-07-29T00:00:07;20.50;95.40
21602;DHT22;10963;50.934;4.668;2022-07-29T00:02:35;20.50;95.40
21602;DHT22;10963;50.934;4.668;2022-07-29T00:05:03;20.50;95.20
21602;DHT22;10963;50.934;4.668;2022-07-29T00:07:29;20.50;95.20
21602;DHT22;10963;50.934;4.668;2022-07-29T00:09:55;20.40;95.20
21602;DHT22;10963;50.934;4.668;2022-07-29T00:12:24;20.50;95.50
21602;DHT22;10963;50.934;4.668;2022-07-29T00:14:53;20.40;95.80
21602;DHT22;10963;50.934;4.668;2022-07-29T00:17:24;20.40;95.80
21602;DHT22;10963;50.934;4.668;2022-07-29T00:19:50;20.40;95.80
21602;DHT22;10963;50.934;4.668;2022-07-29T00:22:16;20.20;96.10
21602;DHT22;10963;50.934;4.668;2022-07-29T00:24:44;20.20;96.30
21602;DHT22;10963;50.934;4.668;2022-07-29T00:27:12;20.40;96.10
21602;DHT22;10963;50.934;4.668;2022-07-29T00:29:42;20.30;96.20
21602;DHT22;10963;50.934;4.668;2022-07-29T00:32:10;20.50;95.70
21602;DHT22;10963;50.934;4.668;2022-07-29T00:34:36;20.40;95.80
21602;DHT22;10963;50.934;4.668;2022-07-29T00:37:23;20.30;96.20
21602;DHT22;10963;50.934;4.668;2022-07-29T00:39:49;20.40;95.80
21602;DHT22;10963;50.934;4.668;2022-07-29T00:42:17;20.10;96.30
21602;DHT22;10963;50.934;4.668;2022-07-29T00:44:43;20.00;96.80
21602;DHT22;10963;50.934;4.668;2022-07-29T00:47:10;20.00;97.00
21602;DHT22;10963;50.934;4.668;2022-07-29T00:49:38;20.00;97.40
21602;DHT22;10963;50.934;4.668;2022-07-29T00:52:09;20.00;97.40
21602;DHT22;10963;50.934;4.668;2022-07-29T00:54:39;19.90;97.70
21602;DHT22;10963;50.934;4.668;2022-07-29T00:57:06;19.80;97.90
21602;DHT22;10963;50.934;4.668;2022-07-29T00:59:35;19.90;97.90
21602;DHT22;10963;50.934;4.668;2022-07-29T01:02:04;20.00;97.80
21602;DHT22;10963;50.934;4.668;2022-07-29T01:04:33;20.00;97.90
21602;DHT22;10963;50.934;4.668;2022-07-29T01:07:04;20.00;98.50
21602;DHT22;10963;50.934;4.668;2022-07-29T01:09:34;20.10;98.00
21602;DHT22;10963;50.934;4.668;2022-07-29T01:12:01;20.20;97.90
21602;DHT22;10963;50.934;4.668;2022-07-29T01:14:28;20.20;97.60
21602;DHT22;10963;50.934;4.668;2022-07-29T01:17:05;20.00;97.90
21602;DHT22;10963;50.934;4.668;2022-07-29T01:19:45;19.90;98.50
21602;DHT22;10963;50.934;4.668;2022-07-29T01:30:35;19.90;99.90
21602;DHT22;10963;50.934;4.668;2022-07-29T01:33:10;19.80;99.90
21602;DHT22;10963;50.934;4.668;2022-07-29T01:35:57;19.80;99.90
21602;DHT22;10963;50.934;4.668;2022-07-29T01:38:25;19.80;99.90
21602;DHT22;10963;50.934;4.668;2022-07-29T01:41:12;20.00;99.90
21602;DHT22;10963;50.934;4.668;2022-07-29T01:44:02;20.00;99.90
21602;DHT22;10963;50.934;4.668;2022-07-29T01:46:40;19.60;99.90
21602;DHT22;10963;50.934;4.668;2022-07-29T01:49:24;19.50;99.90
21602;DHT22;10963;50.934;4.668;2022-07-29T01:52:00;19.50;99.90
21602;DHT22;10963;50.934;4.668;2022-07-29T01:54:35;19.50;99.90
21602;DHT22;10963;50.934;4.668;2022-07-29T01:57:04;19.30;99.90
21602;DHT22;10963;50.934;4.668;2022-07-29T01:59:30;19.20;99.90
21602;DHT22;10963;50.934;4.668;2022-07-29T02:02:02;19.10;99.90
21602;DHT22;10963;50.934;4.668;2022-07-29T02:04:32;19.00;99.90
21602;DHT22;10963;50.934;4.668;2022-07-29T02:07:01;19.10;99.90
21602;DHT22;10963;50.934;4.668;2022-07-29T02:09:32;19.10;99.90
21602;DHT22;10963;50.934;4.668;2022-07-29T02:11:59;19.10;99.90
21602;DHT22;10963;50.934;4.668;2022-07-29T02:14:29;19.10;99.90
21602;DHT22;10963;50.934;4.668;2022-07-29T02:16:58;19.10;99.90
21602;DHT22;10963;50.934;4.668;2022-07-29T02:19:29;19.10;99.90
21602;DHT22;10963;50.934;4.668;2022-07-29T02:21:57;19.00;99.90
21602;DHT22;10963;50.934;4.668;2022-07-29T02:24:26;19.00;99.90
21602;DHT22;10963;50.934;4.668;2022-07-29T02:26:55;18.90;99.90
21602;DHT22;10963;50.934;4.668;2022-07-29T02:29:23;18.80;99.90
21602;DHT22;10963;50.934;4.668;2022-07-29T02:31:51;18.90;99.90
21602;DHT22;10963;50.934;4.668;2022-07-29T02:34:19;18.80;99.90
21602;DHT22;10963;50.934;4.668;2022-07-29T02:36:50;18.70;99.90
21602;DHT22;10963;50.934;4.668;2022-07-29T02:39:17;18.70;99.90
21602;DHT22;10963;50.934;4.668;2022-07-29T02:41:51;18.70;99.90
21602;DHT22;10963;50.934;4.668;2022-07-29T02:44:24;18.60;99.90
21602;DHT22;10963;50.934;4.668;2022-07-29T02:47:06;18.80;99.90
21602;DHT22;10963;50.934;4.668;2022-07-29T02:52:57;18.40;99.90
21602;DHT22;10963;50.934;4.668;2022-07-29T03:00:37;18.20;99.90
21602;DHT22;10963;50.934;4.668;2022-07-29T03:03:06;18.10;99.90
21602;DHT22;10963;50.934;4.668;2022-07-29T03:05:33;18.00;99.90
21602;DHT22;10963;50.934;4.668;2022-07-29T03:08:02;17.90;99.90
21602;DHT22;10963;50.934;4.668;2022-07-29T03:10:29;17.90;99.90
21602;DHT22;10963;50.934;4.668;2022-07-29T03:12:56;17.90;99.90
21602;DHT22;10963;50.934;4.668;2022-07-29T03:15:22;17.90;99.90
21602;DHT22;10963;50.934;4.668;2022-07-29T03:17:51;17.90;99.90
21602;DHT22;10963;50.934;4.668;2022-07-29T03:20:20;17.80;99.90
21602;DHT22;10963;50.934;4.668;2022-07-29T03:22:48;17.80;99.90
21602;DHT22;10963;50.934;4.668;2022-07-29T03:25:17;17.80;99.90
21602;DHT22;10963;50.934;4.668;2022-07-29T03:27:47;17.80;99.90
21602;DHT22;10963;50.934;4.668;2022-07-29T03:30:15;17.80;99.90
21602;DHT22;10963;50.934;4.668;2022-07-29T03:32:44;17.80;99.90
21602;DHT22;10963;50.934;4.668;2022-07-29T03:35:10;17.70;99.90
21602;DHT22;10963;50.934;4.668;2022-07-29T03:37:37;17.70;99.90
21602;DHT22;10963;50.934;4.668;2022-07-29T03:40:07;17.60;99.90
21602;DHT22;10963;50.934;4.668;2022-07-29T03:42:35;17.50;99.90
21602;DHT22;10963;50.934;4.668;2022-07-29T03:45:07;17.40;99.90
21602;DHT22;10963;50.934;4.668;2022-07-29T03:47:40;17.30;99.90
21602;DHT22;10963;50.934;4.668;2022-07-29T03:50:11;17.20;99.90
21602;DHT22;10963;50.934;4.668;2022-07-29T03:52:42;17.10;99.90
21602;DHT22;10963;50.934;4.668;2022-07-29T03:55:09;17.00;99.90
21602;DHT22;10963;50.934;4.668;2022-07-29T03:57:35;16.90;99.90
21602;DHT22;10963;50.934;4.668;2022-07-29T04:00:04;17.00;99.90
21602;DHT22;10963;50.934;4.668;2022-07-29T04:02:34;17.00;99.90
21602;DHT22;10963;50.934;4.668;2022-07-29T04:05:04;17.00;99.90
21602;DHT22;10963;50.934;4.668;2022-07-29T04:07:34;17.00;99.90
21602;DHT22;10963;50.934;4.668;2022-07-29T04:10:02;17.00;99.90
21602;DHT22;10963;50.934;4.668;2022-07-29T04:12:35;17.00;99.90
21602;DHT22;10963;50.934;4.668;2022-07-29T04:15:04;17.00;99.90
21602;DHT22;10963;50.934;4.668;2022-07-29T04:17:35;16.80;99.90
21602;DHT22;10963;50.934;4.668;2022-07-29T04:20:03;16.70;99.90
21602;DHT22;10963;50.934;4.668;2022-07-29T04:22:34;16.60;99.90
21602;DHT22;10963;50.934;4.668;2022-07-29T04:25:00;16.50;99.90
21602;DHT22;10963;50.934;4.668;2022-07-29T04:27:28;16.60;99.90
21602;DHT22;10963;50.934;4.668;2022-07-29T04:29:54;16.60;99.90
21602;DHT22;10963;50.934;4.668;2022-07-29T04:32:22;16.70;99.90
21602;DHT22;10963;50.934;4.668;2022-07-29T04:34:48;16.70;99.90
21602;DHT22;10963;50.934;4.668;2022-07-29T04:37:18;16.70;99.90
21602;DHT22;10963;50.934;4.668;2022-07-29T04:39:44;16.60;99.90
21602;DHT22;10963;50.934;4.668;2022-07-29T04:42:14;16.60;99.90
21602;DHT22;10963;50.934;4.668;2022-07-29T04:44:42;16.70;99.90
21602;DHT22;10963;50.934;4.668;2022-07-29T04:47:11;16.70;99.90
21602;DHT22;10963;50.934;4.668;2022-07-29T04:49:39;16.70;99.90
21602;DHT22;10963;50.934;4.668;2022-07-29T04:52:06;16.60;99.90
21602;DHT22;10963;50.934;4.668;2022-07-29T04:54:35;16.60;99.90
21602;DHT22;10963;50.934;4.668;2022-07-29T04:57:01;16.70;99.90
21602;DHT22;10963;50.934;4.668;2022-07-29T04:59:29;16.70;99.90
21602;DHT22;10963;50.934;4.668;2022-07-29T05:01:57;16.70;99.90
21602;DHT22;10963;50.934;4.668;2022-07-29T05:04:27;16.60;99.90
21602;DHT22;10963;50.934;4.668;2022-07-29T05:06:55;16.70;99.90
21602;DHT22;10963;50.934;4.668;2022-07-29T05:09:21;16.80;99.90
21602;DHT22;10963;50.934;4.668;2022-07-29T05:11:47;16.90;99.90
21602;DHT22;10963;50.934;4.668;2022-07-29T05:14:15;16.90;99.90
21602;DHT22;10963;50.934;4.668;2022-07-29T05:16:45;17.10;99.90
21602;DHT22;10963;50.934;4.668;2022-07-29T05:19:16;17.20;99.90
21602;DHT22;10963;50.934;4.668;2022-07-29T05:21:42;17.40;99.90
21602;DHT22;10963;50.934;4.668;2022-07-29T05:24:10;17.50;99.90
21602;DHT22;10963;50.934;4.668;2022-07-29T05:26:36;17.70;99.90
21602;DHT22;10963;50.934;4.668;2022-07-29T05:29:04;17.90;99.90
21602;DHT22;10963;50.934;4.668;2022-07-29T05:31:33;18.00;99.90
21602;DHT22;10963;50.934;4.668;2022-07-29T05:34:01;18.10;99.90
21602;DHT22;10963;50.934;4.668;2022-07-29T05:36:29;18.30;99.90
21602;DHT22;10963;50.934;4.668;2022-07-29T05:38:55;18.40;99.90
21602;DHT22;10963;50.934;4.668;2022-07-29T05:41:21;18.50;99.90
21602;DHT22;10963;50.934;4.668;2022-07-29T05:43:46;18.50;99.90
21602;DHT22;10963;50.934;4.668;2022-07-29T05:46:12;18.70;99.90
21602;DHT22;10963;50.934;4.668;2022-07-29T05:48:39;19.00;99.90
21602;DHT22;10963;50.934;4.668;2022-07-29T05:51:09;19.30;99.90
21602;DHT22;10963;50.934;4.668;2022-07-29T05:53:35;19.50;99.90
21602;DHT22;10963;50.934;4.668;2022-07-29T05:56:04;19.70;99.90
21602;DHT22;10963;50.934;4.668;2022-07-29T05:58:35;20.00;99.90
21602;DHT22;10963;50.934;4.668;2022-07-29T06:01:04;20.50;99.90
21602;DHT22;10963;50.934;4.668;2022-07-29T06:03:32;21.10;99.90
21602;DHT22;10963;50.934;4.668;2022-07-29T06:05:58;21.40;99.90
21602;DHT22;10963;50.934;4.668;2022-07-29T06:08:26;21.80;99.90
21602;DHT22;10963;50.934;4.668;2022-07-29T06:10:51;22.10;99.90
21602;DHT22;10963;50.934;4.668;2022-07-29T06:13:19;22.00;99.90
21602;DHT22;10963;50.934;4.668;2022-07-29T06:15:45;22.10;99.90
21602;DHT22;10963;50.934;4.668;2022-07-29T06:18:14;21.80;99.90
21602;DHT22;10963;50.934;4.668;2022-07-29T06:20:42;21.70;99.90
21602;DHT22;10963;50.934;4.668;2022-07-29T06:23:08;21.50;99.90
21602;DHT22;10963;50.934;4.668;2022-07-29T06:25:36;21.40;99.90
21602;DHT22;10963;50.934;4.668;2022-07-29T06:28:02;21.30;99.90
21602;DHT22;10963;50.934;4.668;2022-07-29T06:30:28;21.40;99.90
21602;DHT22;10963;50.934;4.668;2022-07-29T06:33:01;21.50;99.90
21602;DHT22;10963;50.934;4.668;2022-07-29T06:35:27;21.90;99.90
21602;DHT22;10963;50.934;4.668;2022-07-29T06:37:53;22.10;99.90
21602;DHT22;10963;50.934;4.668;2022-07-29T06:40:20;22.20;99.90
21602;DHT22;10963;50.934;4.668;2022-07-29T06:43:04;22.70;99.90
21602;DHT22;10963;50.934;4.668;2022-07-29T06:45:33;23.10;99.90
21602;DHT22;10963;50.934;4.668;2022-07-29T06:48:01;23.40;99.90
21602;DHT22;10963;50.934;4.668;2022-07-29T06:50:26;23.80;99.10
21602;DHT22;10963;50.934;4.668;2022-07-29T06:52:54;24.10;97.30
21602;DHT22;10963;50.934;4.668;2022-07-29T06:55:20;23.90;97.10
21602;DHT22;10963;50.934;4.668;2022-07-29T06:57:48;23.90;97.60
21602;DHT22;10963;50.934;4.668;2022-07-29T07:00:17;23.60;97.40
21602;DHT22;10963;50.934;4.668;2022-07-29T07:02:43;24.00;96.80
21602;DHT22;10963;50.934;4.668;2022-07-29T07:05:11;23.90;96.60
21602;DHT22;10963;50.934;4.668;2022-07-29T07:07:38;23.80;97.20
21602;DHT22;10963;50.934;4.668;2022-07-29T07:10:07;23.40;97.50
21602;DHT22;10963;50.934;4.668;2022-07-29T07:12:35;23.30;98.20
21602;DHT22;10963;50.934;4.668;2022-07-29T07:15:04;23.40;98.50
21602;DHT22;10963;50.934;4.668;2022-07-29T07:17:30;23.60;99.00
21602;DHT22;10963;50.934;4.668;2022-07-29T07:19:56;24.30;97.50
21602;DHT22;10963;50.934;4.668;2022-07-29T07:22:23;24.50;96.80
21602;DHT22;10963;50.934;4.668;2022-07-29T07:24:49;24.60;96.70
21602;DHT22;10963;50.934;4.668;2022-07-29T07:27:20;24.90;95.70
21602;DHT22;10963;50.934;4.668;2022-07-29T07:29:48;24.90;95.50
21602;DHT22;10963;50.934;4.668;2022-07-29T07:32:16;25.10;94.90
21602;DHT22;10963;50.934;4.668;2022-07-29T07:34:42;25.70;93.30
21602;DHT22;10963;50.934;4.668;2022-07-29T07:37:11;25.70;93.60
21602;DHT22;10963;50.934;4.668;2022-07-29T07:39:36;25.70;93.00
21602;DHT22;10963;50.934;4.668;2022-07-29T07:42:04;25.70;93.30
21602;DHT22;10963;50.934;4.668;2022-07-29T07:44:32;25.50;93.70
21602;DHT22;10963;50.934;4.668;2022-07-29T07:47:00;25.90;92.50
21602;DHT22;10963;50.934;4.668;2022-07-29T07:49:26;26.10;92.80
21602;DHT22;10963;50.934;4.668;2022-07-29T07:51:54;26.20;92.40
21602;DHT22;10963;50.934;4.668;2022-07-29T07:54:20;26.20;92.00
21602;DHT22;10963;50.934;4.668;2022-07-29T07:56:50;26.60;91.80
21602;DHT22;10963;50.934;4.668;2022-07-29T07:59:20;26.60;91.30
21602;DHT22;10963;50.934;4.668;2022-07-29T08:01:46;26.70;91.70
21602;DHT22;10963;50.934;4.668;2022-07-29T08:04:15;27.10;90.60
21602;DHT22;10963;50.934;4.668;2022-07-29T08:06:43;27.30;90.50
21602;DHT22;10963;50.934;4.668;2022-07-29T08:09:08;27.50;90.80
21602;DHT22;10963;50.934;4.668;2022-07-29T08:11:39;27.70;90.00
21602;DHT22;10963;50.934;4.668;2022-07-29T08:14:05;27.40;89.80
21602;DHT22;10963;50.934;4.668;2022-07-29T08:16:30;27.10;90.60
21602;DHT22;10963;50.934;4.668;2022-07-29T08:18:59;27.10;90.20
21602;DHT22;10963;50.934;4.668;2022-07-29T08:21:26;27.50;89.50
21602;DHT22;10963;50.934;4.668;2022-07-29T08:23:54;27.90;88.00
21602;DHT22;10963;50.934;4.668;2022-07-29T08:26:45;27.60;89.70
21602;DHT22;10963;50.934;4.668;2022-07-29T08:29:15;27.90;88.30
21602;DHT22;10963;50.934;4.668;2022-07-29T08:31:41;27.80;88.80
21602;DHT22;10963;50.934;4.668;2022-07-29T08:34:07;28.30;87.40
21602;DHT22;10963;50.934;4.668;2022-07-29T08:36:35;28.50;87.00
21602;DHT22;10963;50.934;4.668;2022-07-29T08:39:03;28.20;87.40
21602;DHT22;10963;50.934;4.668;2022-07-29T08:41:30;28.90;86.70
21602;DHT22;10963;50.934;4.668;2022-07-29T08:43:56;28.60;84.40
21602;DHT22;10963;50.934;4.668;2022-07-29T08:46:22;28.40;86.10
21602;DHT22;10963;50.934;4.668;2022-07-29T08:48:51;28.60;86.40
21602;DHT22;10963;50.934;4.668;2022-07-29T08:51:20;28.50;84.80
21602;DHT22;10963;50.934;4.668;2022-07-29T08:53:52;28.40;83.90
21602;DHT22;10963;50.934;4.668;2022-07-29T08:56:19;28.20;84.90
21602;DHT22;10963;50.934;4.668;2022-07-29T08:58:47;28.20;87.00
21602;DHT22;10963;50.934;4.668;2022-07-29T09:01:23;28.60;87.10
21602;DHT22;10963;50.934;4.668;2022-07-29T09:03:50;29.10;85.50
21602;DHT22;10963;50.934;4.668;2022-07-29T09:06:21;30.00;83.80
21602;DHT22;10963;50.934;4.668;2022-07-29T09:08:50;30.60;80.20
21602;DHT22;10963;50.934;4.668;2022-07-29T09:11:16;30.60;82.10
21602;DHT22;10963;50.934;4.668;2022-07-29T09:13:44;30.50;81.50
21602;DHT22;10963;50.934;4.668;2022-07-29T09:16:12;30.50;79.70
21602;DHT22;10963;50.934;4.668;2022-07-29T09:18:41;31.10;79.50
21602;DHT22;10963;50.934;4.668;2022-07-29T09:21:13;31.20;77.20
21602;DHT22;10963;50.934;4.668;2022-07-29T09:26:31;30.80;78.10
21602;DHT22;10963;50.934;4.668;2022-07-29T09:29:01;30.50;78.10
21602;DHT22;10963;50.934;4.668;2022-07-29T09:31:34;30.30;78.00
21602;DHT22;10963;50.934;4.668;2022-07-29T09:34:00;30.20;78.60
21602;DHT22;10963;50.934;4.668;2022-07-29T09:36:26;30.40;79.10
21602;DHT22;10963;50.934;4.668;2022-07-29T09:39:05;30.60;77.50
21602;DHT22;10963;50.934;4.668;2022-07-29T09:41:51;30.90;75.60
21602;DHT22;10963;50.934;4.668;2022-07-29T09:44:25;30.60;76.80
21602;DHT22;10963;50.934;4.668;2022-07-29T09:47:01;30.40;78.90
21602;DHT22;10963;50.934;4.668;2022-07-29T09:49:57;30.60;77.60
21602;DHT22;10963;50.934;4.668;2022-07-29T09:52:28;31.50;76.80
21602;DHT22;10963;50.934;4.668;2022-07-29T09:55:05;31.80;74.10
21602;DHT22;10963;50.934;4.668;2022-07-29T09:57:31;32.30;72.60
21602;DHT22;10963;50.934;4.668;2022-07-29T09:59:58;32.50;72.20
21602;DHT22;10963;50.934;4.668;2022-07-29T10:02:30;32.40;72.80
21602;DHT22;10963;50.934;4.668;2022-07-29T10:05:03;32.80;70.20
21602;DHT22;10963;50.934;4.668;2022-07-29T10:07:47;32.30;69.80
21602;DHT22;10963;50.934;4.668;2022-07-29T10:10:29;31.50;72.60
21602;DHT22;10963;50.934;4.668;2022-07-29T10:12:57;31.40;72.90
21602;DHT22;10963;50.934;4.668;2022-07-29T10:15:28;31.70;71.60
21602;DHT22;10963;50.934;4.668;2022-07-29T10:18:00;31.20;74.00
21602;DHT22;10963;50.934;4.668;2022-07-29T10:20:27;31.10;73.10
21602;DHT22;10963;50.934;4.668;2022-07-29T10:22:54;31.30;73.50
21602;DHT22;10963;50.934;4.668;2022-07-29T10:25:23;31.20;72.40
21602;DHT22;10963;50.934;4.668;2022-07-29T10:27:52;31.60;69.80
21602;DHT22;10963;50.934;4.668;2022-07-29T10:30:23;32.10;70.20
21602;DHT22;10963;50.934;4.668;2022-07-29T10:44:25;32.10;69.50
21602;DHT22;10963;50.934;4.668;2022-07-29T10:46:55;31.50;68.90
21602;DHT22;10963;50.934;4.668;2022-07-29T10:49:26;31.40;70.00
21602;DHT22;10963;50.934;4.668;2022-07-29T10:52:10;31.90;68.60
21602;DHT22;10963;50.934;4.668;2022-07-29T11:02:46;34.10;65.80
21602;DHT22;10963;50.934;4.668;2022-07-29T11:05:18;34.40;64.30
21602;DHT22;10963;50.934;4.668;2022-07-29T11:10:39;32.60;67.20
21602;DHT22;10963;50.934;4.668;2022-07-29T11:13:05;32.90;64.50
21602;DHT22;10963;50.934;4.668;2022-07-29T11:15:54;32.80;66.10
21602;DHT22;10963;50.934;4.668;2022-07-29T11:18:23;32.40;66.50
21602;DHT22;10963;50.934;4.668;2022-07-29T11:20:50;32.30;68.10
21602;DHT22;10963;50.934;4.668;2022-07-29T11:23:28;31.80;66.70
21602;DHT22;10963;50.934;4.668;2022-07-29T11:26:24;31.00;67.30
21602;DHT22;10963;50.934;4.668;2022-07-29T11:29:05;31.00;69.60
21602;DHT22;10963;50.934;4.668;2022-07-29T11:31:41;30.30;66.60
21602;DHT22;10963;50.934;4.668;2022-07-29T11:44:54;29.00;71.30
21602;DHT22;10963;50.934;4.668;2022-07-29T11:47:26;29.10;71.70
21602;DHT22;10963;50.934;4.668;2022-07-29T11:49:54;29.40;73.50
21602;DHT22;10963;50.934;4.668;2022-07-29T11:52:23;29.50;69.80
21602;DHT22;10963;50.934;4.668;2022-07-29T11:54:50;29.30;71.10
21602;DHT22;10963;50.934;4.668;2022-07-29T11:57:19;29.40;73.00
21602;DHT22;10963;50.934;4.668;2022-07-29T11:59:47;29.40;73.70
21602;DHT22;10963;50.934;4.668;2022-07-29T12:02:15;29.20;73.80
21602;DHT22;10963;50.934;4.668;2022-07-29T12:04:52;29.10;70.60
21602;DHT22;10963;50.934;4.668;2022-07-29T12:07:36;29.00;70.40
21602;DHT22;10963;50.934;4.668;2022-07-29T12:10:06;28.70;70.50
21602;DHT22;10963;50.934;4.668;2022-07-29T12:12:33;28.70;72.80
21602;DHT22;10963;50.934;4.668;2022-07-29T12:15:16;28.90;73.00
21602;DHT22;10963;50.934;4.668;2022-07-29T12:17:52;29.30;71.70
21602;DHT22;10963;50.934;4.668;2022-07-29T12:20:30;29.50;69.20
21602;DHT22;10963;50.934;4.668;2022-07-29T12:22:58;29.50;68.80
21602;DHT22;10963;50.934;4.668;2022-07-29T12:25:35;29.70;71.30
21602;DHT22;10963;50.934;4.668;2022-07-29T12:28:07;29.70;71.90
21602;DHT22;10963;50.934;4.668;2022-07-29T12:30:40;29.40;71.80
21602;DHT22;10963;50.934;4.668;2022-07-29T12:35:49;29.40;72.00
21602;DHT22;10963;50.934;4.668;2022-07-29T12:38:16;29.50;72.30
21602;DHT22;10963;50.934;4.668;2022-07-29T12:40:43;29.60;70.80
21602;DHT22;10963;50.934;4.668;2022-07-29T12:43:14;29.80;70.00
21602;DHT22;10963;50.934;4.668;2022-07-29T12:45:43;29.80;69.90
21602;DHT22;10963;50.934;4.668;2022-07-29T12:48:13;29.50;68.50
21602;DHT22;10963;50.934;4.668;2022-07-29T12:51:02;29.50;69.90
21602;DHT22;10963;50.934;4.668;2022-07-29T12:53:28;29.80;69.90
21602;DHT22;10963;50.934;4.668;2022-07-29T12:55:56;30.00;68.80
21602;DHT22;10963;50.934;4.668;2022-07-29T12:58:35;30.10;68.40
21602;DHT22;10963;50.934;4.668;2022-07-29T13:03:51;30.70;66.00
21602;DHT22;10963;50.934;4.668;2022-07-29T13:09:18;30.60;68.60
21602;DHT22;10963;50.934;4.668;2022-07-29T13:11:46;30.50;66.80
21602;DHT22;10963;50.934;4.668;2022-07-29T13:14:36;30.30;67.00
21602;DHT22;10963;50.934;4.668;2022-07-29T13:17:07;30.10;67.00
21602;DHT22;10963;50.934;4.668;2022-07-29T13:19:47;29.90;67.90
21602;DHT22;10963;50.934;4.668;2022-07-29T13:22:24;29.90;69.10
21602;DHT22;10963;50.934;4.668;2022-07-29T13:27:25;30.60;69.50
21602;DHT22;10963;50.934;4.668;2022-07-29T13:29:55;30.80;66.20
21602;DHT22;10963;50.934;4.668;2022-07-29T13:32:26;30.70;64.90
21602;DHT22;10963;50.934;4.668;2022-07-29T13:34:55;30.40;67.10
21602;DHT22;10963;50.934;4.668;2022-07-29T13:37:21;30.00;67.40
21602;DHT22;10963;50.934;4.668;2022-07-29T13:39:47;29.80;66.80
21602;DHT22;10963;50.934;4.668;2022-07-29T13:42:13;29.60;69.10
21602;DHT22;10963;50.934;4.668;2022-07-29T13:44:40;29.60;66.40
21602;DHT22;10963;50.934;4.668;2022-07-29T13:47:06;29.70;67.40
21602;DHT22;10963;50.934;4.668;2022-07-29T13:49:33;29.50;68.60
21602;DHT22;10963;50.934;4.668;2022-07-29T13:51:59;29.60;69.70
21602;DHT22;10963;50.934;4.668;2022-07-29T13:54:25;29.70;68.50
21602;DHT22;10963;50.934;4.668;2022-07-29T13:56:51;30.00;69.80
21602;DHT22;10963;50.934;4.668;2022-07-29T13:59:17;30.00;67.00
21602;DHT22;10963;50.934;4.668;2022-07-29T14:01:43;30.10;67.20
21602;DHT22;10963;50.934;4.668;2022-07-29T14:04:10;30.00;65.40
21602;DHT22;10963;50.934;4.668;2022-07-29T14:06:42;29.70;67.70
21602;DHT22;10963;50.934;4.668;2022-07-29T14:09:10;29.50;68.50
21602;DHT22;10963;50.934;4.668;2022-07-29T14:11:36;29.40;69.70
21602;DHT22;10963;50.934;4.668;2022-07-29T14:14:04;29.50;69.50
21602;DHT22;10963;50.934;4.668;2022-07-29T14:16:32;29.60;68.80
21602;DHT22;10963;50.934;4.668;2022-07-29T14:18:58;29.70;69.40
21602;DHT22;10963;50.934;4.668;2022-07-29T14:21:27;29.60;70.60
21602;DHT22;10963;50.934;4.668;2022-07-29T14:23:55;29.80;69.10
21602;DHT22;10963;50.934;4.668;2022-07-29T14:26:23;29.70;69.70
21602;DHT22;10963;50.934;4.668;2022-07-29T14:28:49;29.80;69.80
21602;DHT22;10963;50.934;4.668;2022-07-29T14:31:15;29.60;70.00
21602;DHT22;10963;50.934;4.668;2022-07-29T14:33:46;29.50;67.80
21602;DHT22;10963;50.934;4.668;2022-07-29T14:36:11;29.40;69.20
21602;DHT22;10963;50.934;4.668;2022-07-29T14:38:37;29.20;69.90
21602;DHT22;10963;50.934;4.668;2022-07-29T14:41:04;29.20;71.10
21602;DHT22;10963;50.934;4.668;2022-07-29T14:43:30;29.40;70.00
21602;DHT22;10963;50.934;4.668;2022-07-29T14:45:55;29.40;68.10
21602;DHT22;10963;50.934;4.668;2022-07-29T14:48:23;29.50;73.60
21602;DHT22;10963;50.934;4.668;2022-07-29T14:50:49;29.30;70.50
21602;DHT22;10963;50.934;4.668;2022-07-29T14:53:18;29.50;68.70
21602;DHT22;10963;50.934;4.668;2022-07-29T14:55:44;29.30;69.90
21602;DHT22;10963;50.934;4.668;2022-07-29T14:58:10;29.40;69.60
21602;DHT22;10963;50.934;4.668;2022-07-29T15:00:36;29.50;69.10
21602;DHT22;10963;50.934;4.668;2022-07-29T15:03:03;29.90;69.80
21602;DHT22;10963;50.934;4.668;2022-07-29T15:05:32;30.30;66.50
21602;DHT22;10963;50.934;4.668;2022-07-29T15:08:00;30.60;67.40
21602;DHT22;10963;50.934;4.668;2022-07-29T15:10:28;30.60;65.80
21602;DHT22;10963;50.934;4.668;2022-07-29T15:12:55;30.60;66.90
21602;DHT22;10963;50.934;4.668;2022-07-29T15:15:24;30.60;66.50
21602;DHT22;10963;50.934;4.668;2022-07-29T15:17:50;30.50;65.10
21602;DHT22;10963;50.934;4.668;2022-07-29T15:20:16;30.60;64.60
21602;DHT22;10963;50.934;4.668;2022-07-29T15:22:42;30.50;65.20
21602;DHT22;10963;50.934;4.668;2022-07-29T15:25:08;30.40;64.20
21602;DHT22;10963;50.934;4.668;2022-07-29T15:27:34;30.30;63.60
21602;DHT22;10963;50.934;4.668;2022-07-29T15:30:03;30.20;63.30
21602;DHT22;10963;50.934;4.668;2022-07-29T15:32:28;30.10;65.30
21602;DHT22;10963;50.934;4.668;2022-07-29T15:34:56;29.90;65.10
21602;DHT22;10963;50.934;4.668;2022-07-29T15:37:22;29.60;66.50
21602;DHT22;10963;50.934;4.668;2022-07-29T15:39:50;29.20;67.40
21602;DHT22;10963;50.934;4.668;2022-07-29T15:42:16;29.10;66.30
21602;DHT22;10963;50.934;4.668;2022-07-29T15:44:46;29.10;64.60
21602;DHT22;10963;50.934;4.668;2022-07-29T15:47:14;29.10;66.20
21602;DHT22;10963;50.934;4.668;2022-07-29T15:49:41;29.20;66.30
21602;DHT22;10963;50.934;4.668;2022-07-29T15:52:08;29.10;66.20
21602;DHT22;10963;50.934;4.668;2022-07-29T15:54:39;29.00;64.60
21602;DHT22;10963;50.934;4.668;2022-07-29T15:57:06;28.80;66.50
21602;DHT22;10963;50.934;4.668;2022-07-29T15:59:32;28.80;67.00
21602;DHT22;10963;50.934;4.668;2022-07-29T16:01:59;28.90;66.50
21602;DHT22;10963;50.934;4.668;2022-07-29T16:04:26;28.80;66.80
21602;DHT22;10963;50.934;4.668;2022-07-29T16:06:52;29.00;67.90
21602;DHT22;10963;50.934;4.668;2022-07-29T16:09:19;29.10;67.60
21602;DHT22;10963;50.934;4.668;2022-07-29T16:11:46;29.20;66.40
21602;DHT22;10963;50.934;4.668;2022-07-29T16:14:17;29.30;65.30
21602;DHT22;10963;50.934;4.668;2022-07-29T16:16:43;29.40;67.70
21602;DHT22;10963;50.934;4.668;2022-07-29T16:19:11;29.40;64.80
21602;DHT22;10963;50.934;4.668;2022-07-29T16:21:40;29.20;66.80
21602;DHT22;10963;50.934;4.668;2022-07-29T16:24:06;29.10;67.80
21602;DHT22;10963;50.934;4.668;2022-07-29T16:26:35;29.10;65.60
21602;DHT22;10963;50.934;4.668;2022-07-29T16:29:01;28.80;67.00
21602;DHT22;10963;50.934;4.668;2022-07-29T16:31:27;28.50;67.90
21602;DHT22;10963;50.934;4.668;2022-07-29T16:33:53;28.30;68.50
21602;DHT22;10963;50.934;4.668;2022-07-29T16:36:22;28.10;71.10
21602;DHT22;10963;50.934;4.668;2022-07-29T16:38:50;28.10;69.90
21602;DHT22;10963;50.934;4.668;2022-07-29T16:41:18;28.00;70.10
21602;DHT22;10963;50.934;4.668;2022-07-29T16:43:44;28.10;69.50
21602;DHT22;10963;50.934;4.668;2022-07-29T16:46:14;28.10;70.20